createdAt,value
2022-12-27T16:29:47.479Z,12.73
2022-12-27T16:32:22.869Z,13.38
2022-12-27T16:35:09.915Z,13.48
2022-12-27T16:37:51.098Z,13.35
2022-12-27T16:40:44.222Z,13.80
2022-12-27T16:43:29.122Z,13.98
2022-12-27T16:46:30.079Z,14.43
2022-12-27T16:49:40.048Z,16.92
2022-12-27T16:52:17.753Z,15.35
2022-12-27T16:55:06.931Z,18.33
2022-12-27T16:57:47.296Z,16.20
2022-12-27T17:00:41.023Z,15.35
2022-12-27T17:03:21.168Z,15.05
2022-12-27T17:06:30.108Z,15.85
2022-12-27T17:08:46.570Z,13.82
2022-12-27T17:11:29.835Z,16.75
2022-12-27T17:14:18.494Z,17.80
2022-12-27T17:16:56.121Z,17.70
2022-12-27T17:19:28.008Z,19.98
2022-12-27T17:22:04.543Z,19.60
2022-12-27T17:24:36.630Z,19.33
2022-12-27T17:27:36.739Z,19.00
2022-12-27T17:30:16.283Z,16.70
2022-12-27T17:32:57.058Z,15.77
2022-12-27T17:35:53.597Z,17.83
2022-12-27T17:38:45.882Z,18.52
2022-12-27T17:42:08.008Z,18.75
2022-12-27T17:44:43.024Z,21.00
2022-12-27T17:47:48.308Z,25.45
2022-12-27T17:50:24.186Z,26.25
2022-12-27T17:53:34.956Z,23.33
2022-12-27T17:56:36.735Z,27.75
2022-12-27T17:59:14.903Z,22.90
2022-12-27T18:01:50.208Z,21.98
2022-12-27T18:04:29.066Z,21.58
2022-12-27T18:07:03.928Z,23.92
2022-12-27T18:09:38.229Z,22.70
2022-12-27T18:12:31.277Z,22.90
2022-12-27T18:15:14.431Z,23.80
2022-12-27T18:17:50.128Z,22.60
2022-12-27T18:20:28.461Z,23.48
2022-12-27T18:23:00.465Z,24.08
2022-12-27T18:25:40.493Z,23.58
2022-12-27T18:28:32.474Z,23.85
2022-12-27T18:31:17.494Z,21.98
2022-12-27T18:33:57.548Z,21.23
2022-12-27T18:36:35.371Z,19.45
2022-12-27T18:39:29.485Z,22.33
2022-12-27T18:44:50.380Z,36.53
2022-12-27T18:47:25.102Z,27.55
2022-12-27T18:49:58.290Z,22.50
2022-12-27T18:52:33.242Z,19.63
2022-12-27T18:55:07.417Z,18.50
2022-12-27T18:57:39.654Z,18.77
2022-12-27T19:00:19.632Z,20.85
2022-12-27T19:02:53.248Z,23.73
2022-12-27T19:05:28.622Z,17.92
2022-12-27T19:08:21.058Z,17.20
2022-12-27T19:10:53.687Z,16.33
2022-12-27T19:13:40.122Z,19.08
2022-12-27T19:16:23.899Z,18.98
2022-12-27T19:19:03.128Z,14.57
2022-12-27T19:21:38.285Z,16.55
2022-12-27T19:24:28.853Z,14.75
2022-12-27T19:27:15.378Z,15.40
2022-12-27T19:29:51.023Z,14.52
2022-12-27T19:32:31.685Z,14.40
2022-12-27T19:35:05.139Z,15.38
2022-12-27T19:37:37.425Z,14.35
2022-12-27T19:40:14.543Z,14.23
2022-12-27T19:42:46.721Z,13.60
2022-12-27T19:45:20.673Z,14.45
2022-12-27T19:47:54.354Z,14.77
2022-12-27T19:50:26.460Z,15.63
2022-12-27T19:52:59.978Z,16.58
2022-12-27T19:58:05.851Z,15.73
2022-12-27T20:00:37.880Z,16.42
2022-12-27T20:03:10.993Z,15.90
2022-12-27T20:06:11.531Z,17.80
2022-12-27T20:08:40.737Z,19.77
2022-12-27T20:11:18.684Z,17.95
2022-12-27T20:13:50.931Z,19.27
2022-12-27T20:16:22.952Z,19.60
2022-12-27T20:18:55.007Z,20.95
2022-12-27T20:21:27.034Z,19.95
2022-12-27T20:23:59.019Z,18.77
2022-12-27T20:26:31.016Z,20.23
2022-12-27T20:29:03.191Z,21.67
2022-12-27T20:31:43.859Z,20.15
2022-12-27T20:34:16.913Z,19.30
2022-12-27T20:36:49.048Z,22.05
2022-12-27T20:39:21.565Z,19.88
2022-12-27T20:41:53.618Z,19.50
2022-12-27T20:44:25.624Z,17.92
2022-12-27T20:46:57.553Z,18.52
2022-12-27T20:49:29.661Z,17.60
2022-12-27T20:52:01.992Z,17.15
2022-12-27T20:54:34.018Z,16.60
2022-12-27T20:57:06.062Z,16.05
2022-12-27T20:59:38.013Z,16.23
2022-12-27T21:02:13.185Z,16.52
2022-12-27T21:04:45.599Z,15.30
2022-12-27T21:07:17.530Z,16.15
2022-12-27T21:09:50.714Z,15.13
2022-12-27T21:12:22.736Z,16.45
2022-12-27T21:14:54.729Z,16.65
2022-12-27T21:17:27.189Z,15.35
2022-12-27T21:19:59.177Z,14.55
2022-12-27T21:22:35.666Z,15.10
2022-12-27T21:25:08.121Z,15.95
2022-12-27T21:27:40.118Z,17.98
2022-12-27T21:30:14.619Z,17.92
2022-12-27T21:32:50.462Z,13.65
2022-12-27T21:35:22.499Z,13.32
2022-12-27T21:37:54.792Z,14.63
2022-12-27T21:40:26.834Z,13.80
2022-12-27T21:42:58.779Z,13.35
2022-12-27T21:45:30.867Z,13.98
2022-12-27T21:48:02.877Z,14.80
2022-12-27T21:50:37.407Z,14.65
2022-12-27T21:53:09.518Z,12.70
2022-12-27T21:55:41.725Z,11.75
2022-12-27T21:58:14.000Z,14.25
2022-12-27T22:00:46.056Z,13.52
2022-12-27T22:03:18.379Z,13.38
2022-12-27T22:05:50.405Z,13.82
2022-12-27T22:08:22.710Z,12.55
2022-12-27T22:10:56.535Z,13.10
2022-12-27T22:13:28.942Z,12.80
2022-12-27T22:16:03.515Z,14.50
2022-12-27T22:18:38.510Z,12.90
2022-12-27T22:21:18.294Z,12.15
